KCVS/CVS METAR and TAF weather

Enter ICAO airport designator
Station Type Date Time Source
KCVS METAR 2019/02/23 02:58 UTC NOAA

KCVS 230258Z AUTO 12012KT 10SM OVC100 06/02 A2970 RMK AO2 SLP056 T00640023 55003 $


Station Type Date Time Source
KCVS Decoded METAR 2019/02/23 02:58 UTC NOAA

Cannon Air Force Base / Clovis, NM, United States (KCVS) 34-23N 103-19W
Feb 22, 2019 - 09:58 PM EST / 2019.02.23 0258 UTC
Wind: from the ESE (120 degrees) at 14 MPH (12 KT):0
Visibility: 10 mile(s):0
Sky conditions: overcast
Temperature: 43.5 F (6.4 C)
Dew Point: 36.1 F (2.3 C)
Relative Humidity: 75%
Pressure (altimeter): 29.7 in. Hg (1005 hPa)
Pressure tendency: 0.01 inches (0.3 hPa) lower than three hours ago
ob: KCVS 230258Z AUTO 12012KT 10SM OVC100 06/02 A2970 RMK AO2 SLP056 T00640023 55003
cycle: 3

Station Type Date Time Source
KCVS TAF 2019/02/23 02:03 UTC NOAA

TAF TAF KCVS 230200Z 2302/2408 13015G20KT 9999 FEW150 QNH2986INS
BECMG 2306/2307 24025G40KT 9000 -RASN BKN010 OVC040 620255 QNH2964INS
TEMPO 2307/2310 6000 -SN OVC008 620105
BECMG 2309/2310 28025G40KT 9999 NSW BKN040 QNH2978INS
TEMPO 2313/2316 28030G45KT 520005
BECMG 2321/2322 28018G28KT 9999 SKC QNH2990INS
BECMG 2402/2403 24008KT 9999 SKC QNH2990INS TX11/2321Z TN01/2312Z


Example: see airport list